Las Vegas, Nevada
Traffic Map
Current Weather Conditions
Las Vegas, Nevada
Clear
Clear
85°
Feels Like: 85°
Wind Chill: 85° Ceiling: Unl
Heat Index: 85° Visibility: 10mi
Dew Point: 25° Wind: 3mph
Humidity: 11% Direction: ° ()
Pressure: 30.06in Gusts: 0mph
Raw Report DataKLAS 242156Z VRB03KT 10SM CLR 29/M04 A3006 RMK AO2 SLP160 T02941039
Traffic Incident Summary
Active as of:
Severity:
Category:
InformationThere was an issue retrieving the traffic information for this location. Please try a different location or try again shortly.
Advertisements
Track Severe Weather on mobile